sensor_id;sensor_type;location;lat;lon;timestamp;pressure;altitude;pressure_sealevel;temperature;humidity
20612;BME280;10465;42.686;23.364;2023-01-01T00:00:45;96411.97;;;7.65;76.73
20612;BME280;10465;42.686;23.364;2023-01-01T00:03:11;96386.13;;;7.35;77.16
20612;BME280;10465;42.686;23.364;2023-01-01T00:05:39;96409.88;;;7.40;77.29
20612;BME280;10465;42.686;23.364;2023-01-01T00:08:05;96410.13;;;7.38;77.71
20612;BME280;10465;42.686;23.364;2023-01-01T00:10:31;96398.19;;;7.31;78.24
20612;BME280;10465;42.686;23.364;2023-01-01T00:12:57;96414.16;;;7.46;77.97
20612;BME280;10465;42.686;23.364;2023-01-01T00:15:24;96412.81;;;7.43;77.95
20612;BME280;10465;42.686;23.364;2023-01-01T00:17:49;96419.13;;;7.42;77.82
20612;BME280;10465;42.686;23.364;2023-01-01T00:20:15;96392.06;;;7.25;77.41
20612;BME280;10465;42.686;23.364;2023-01-01T00:22:41;96393.41;;;7.28;76.93
20612;BME280;10465;42.686;23.364;2023-01-01T00:25:06;96419.97;;;7.48;77.47
20612;BME280;10465;42.686;23.364;2023-01-01T00:27:32;96399.97;;;7.25;77.78
20612;BME280;10465;42.686;23.364;2023-01-01T00:29:57;96416.25;;;7.22;77.64
20612;BME280;10465;42.686;23.364;2023-01-01T00:32:23;96428.88;;;7.20;77.29
20612;BME280;10465;42.686;23.364;2023-01-01T00:34:49;96424.81;;;7.12;76.72
20612;BME280;10465;42.686;23.364;2023-01-01T00:37:14;96410.38;;;6.93;76.43
20612;BME280;10465;42.686;23.364;2023-01-01T00:39:42;96413.53;;;6.95;76.51
20612;BME280;10465;42.686;23.364;2023-01-01T00:42:08;96423.91;;;7.02;76.38
20612;BME280;10465;42.686;23.364;2023-01-01T00:44:33;96425.75;;;7.01;76.58
20612;BME280;10465;42.686;23.364;2023-01-01T00:46:59;96425.44;;;6.98;77.22
20612;BME280;10465;42.686;23.364;2023-01-01T00:49:24;96418.38;;;7.03;77.64
20612;BME280;10465;42.686;23.364;2023-01-01T00:51:49;96427.72;;;7.11;77.23
20612;BME280;10465;42.686;23.364;2023-01-01T00:54:15;96430.16;;;7.17;77.34
20612;BME280;10465;42.686;23.364;2023-01-01T00:56:40;96407.59;;;7.05;77.03
20612;BME280;10465;42.686;23.364;2023-01-01T00:59:06;96406.63;;;6.89;77.18
20612;BME280;10465;42.686;23.364;2023-01-01T01:01:31;96421.31;;;6.85;77.38
20612;BME280;10465;42.686;23.364;2023-01-01T01:03:58;96411.22;;;6.77;77.73
20612;BME280;10465;42.686;23.364;2023-01-01T01:06:24;96415.84;;;6.69;77.71
20612;BME280;10465;42.686;23.364;2023-01-01T01:08:49;96383.97;;;6.49;78.50
20612;BME280;10465;42.686;23.364;2023-01-01T01:11:22;96421.63;;;6.72;78.89
20612;BME280;10465;42.686;23.364;2023-01-01T01:13:51;96409.53;;;6.71;78.71
20612;BME280;10465;42.686;23.364;2023-01-01T01:16:28;96421.13;;;6.91;78.12
20612;BME280;10465;42.686;23.364;2023-01-01T01:18:56;96417.50;;;6.76;77.13
20612;BME280;10465;42.686;23.364;2023-01-01T01:21:23;96373.78;;;6.53;76.44
20612;BME280;10465;42.686;23.364;2023-01-01T01:23:49;96416.69;;;6.75;77.03
20612;BME280;10465;42.686;23.364;2023-01-01T01:26:21;96409.59;;;6.76;76.83
20612;BME280;10465;42.686;23.364;2023-01-01T01:28:47;96418.91;;;6.83;76.00
20612;BME280;10465;42.686;23.364;2023-01-01T01:31:13;96409.13;;;6.79;77.24
20612;BME280;10465;42.686;23.364;2023-01-01T01:33:39;96406.97;;;6.76;77.74
20612;BME280;10465;42.686;23.364;2023-01-01T01:36:05;96411.31;;;6.87;77.81
20612;BME280;10465;42.686;23.364;2023-01-01T01:38:31;96401.66;;;6.92;78.26
20612;BME280;10465;42.686;23.364;2023-01-01T01:40:57;96384.94;;;6.82;77.86
20612;BME280;10465;42.686;23.364;2023-01-01T01:43:49;96410.22;;;7.05;77.59
20612;BME280;10465;42.686;23.364;2023-01-01T01:46:29;96410.31;;;7.10;77.19
20612;BME280;10465;42.686;23.364;2023-01-01T01:49:01;96395.00;;;6.85;77.14
20612;BME280;10465;42.686;23.364;2023-01-01T01:51:33;96409.50;;;6.87;77.85
20612;BME280;10465;42.686;23.364;2023-01-01T01:54:05;96411.50;;;6.80;77.57
20612;BME280;10465;42.686;23.364;2023-01-01T01:56:46;96412.31;;;6.64;78.26
20612;BME280;10465;42.686;23.364;2023-01-01T01:59:13;96415.53;;;6.66;77.43
20612;BME280;10465;42.686;23.364;2023-01-01T02:01:40;96404.84;;;6.56;77.88
20612;BME280;10465;42.686;23.364;2023-01-01T02:04:06;96424.47;;;6.65;78.11
20612;BME280;10465;42.686;23.364;2023-01-01T02:06:32;96418.81;;;6.56;78.45
20612;BME280;10465;42.686;23.364;2023-01-01T02:09:01;96423.19;;;6.51;78.66
20612;BME280;10465;42.686;23.364;2023-01-01T02:11:27;96417.47;;;6.37;79.24
20612;BME280;10465;42.686;23.364;2023-01-01T02:13:54;96421.34;;;6.34;79.44
20612;BME280;10465;42.686;23.364;2023-01-01T02:16:35;96421.28;;;6.29;79.74
20612;BME280;10465;42.686;23.364;2023-01-01T02:19:28;96436.59;;;6.32;80.32
20612;BME280;10465;42.686;23.364;2023-01-01T02:22:14;96427.03;;;6.26;80.77
20612;BME280;10465;42.686;23.364;2023-01-01T02:27:37;96428.00;;;6.37;81.28
20612;BME280;10465;42.686;23.364;2023-01-01T02:30:10;96418.25;;;6.37;80.96
20612;BME280;10465;42.686;23.364;2023-01-01T02:32:43;96432.66;;;6.52;80.36
20612;BME280;10465;42.686;23.364;2023-01-01T02:35:16;96423.97;;;6.51;79.80
20612;BME280;10465;42.686;23.364;2023-01-01T02:38:32;96432.69;;;6.68;78.54
20612;BME280;10465;42.686;23.364;2023-01-01T02:41:05;96430.91;;;6.74;77.49
20612;BME280;10465;42.686;23.364;2023-01-01T02:43:33;96409.28;;;6.72;77.31
20612;BME280;10465;42.686;23.364;2023-01-01T02:45:58;96426.81;;;6.83;77.24
20612;BME280;10465;42.686;23.364;2023-01-01T02:48:53;96422.28;;;6.79;77.30
20612;BME280;10465;42.686;23.364;2023-01-01T02:59:31;96417.69;;;6.69;78.30
20612;BME280;10465;42.686;23.364;2023-01-01T03:07:45;96404.69;;;6.46;77.94
20612;BME280;10465;42.686;23.364;2023-01-01T03:10:47;96415.72;;;6.26;78.56
20612;BME280;10465;42.686;23.364;2023-01-01T03:21:41;96399.66;;;5.93;77.52
20612;BME280;10465;42.686;23.364;2023-01-01T03:24:45;96428.06;;;6.08;77.36
20612;BME280;10465;42.686;23.364;2023-01-01T03:27:30;96409.78;;;6.02;77.84
20612;BME280;10465;42.686;23.364;2023-01-01T03:30:00;96403.19;;;5.70;77.48
20612;BME280;10465;42.686;23.364;2023-01-01T03:32:31;96403.84;;;5.49;78.60
20612;BME280;10465;42.686;23.364;2023-01-01T03:35:18;96416.66;;;5.45;79.37
20612;BME280;10465;42.686;23.364;2023-01-01T03:37:47;96407.47;;;5.31;79.80
20612;BME280;10465;42.686;23.364;2023-01-01T03:40:17;96407.47;;;5.31;80.08
20612;BME280;10465;42.686;23.364;2023-01-01T03:42:50;96415.41;;;5.48;80.74
20612;BME280;10465;42.686;23.364;2023-01-01T03:45:21;96421.19;;;5.50;80.28
20612;BME280;10465;42.686;23.364;2023-01-01T03:47:48;96422.56;;;5.53;79.21
20612;BME280;10465;42.686;23.364;2023-01-01T03:50:14;96411.41;;;5.45;79.51
20612;BME280;10465;42.686;23.364;2023-01-01T03:55:28;96408.22;;;5.72;80.94
20612;BME280;10465;42.686;23.364;2023-01-01T03:58:22;96398.81;;;5.76;80.11
20612;BME280;10465;42.686;23.364;2023-01-01T04:00:55;96413.50;;;5.89;79.20
20612;BME280;10465;42.686;23.364;2023-01-01T04:03:27;96427.31;;;5.96;78.66
20612;BME280;10465;42.686;23.364;2023-01-01T04:05:54;96378.78;;;5.58;78.41
20612;BME280;10465;42.686;23.364;2023-01-01T04:08:20;96406.13;;;5.74;78.33
20612;BME280;10465;42.686;23.364;2023-01-01T04:10:56;96415.47;;;5.82;78.61
20612;BME280;10465;42.686;23.364;2023-01-01T04:13:23;96419.13;;;5.81;77.66
20612;BME280;10465;42.686;23.364;2023-01-01T04:15:49;96407.16;;;5.73;77.51
20612;BME280;10465;42.686;23.364;2023-01-01T04:18:15;96419.91;;;5.64;78.64
20612;BME280;10465;42.686;23.364;2023-01-01T04:20:40;96434.13;;;5.80;78.41
20612;BME280;10465;42.686;23.364;2023-01-01T04:23:06;96414.19;;;5.67;77.38
20612;BME280;10465;42.686;23.364;2023-01-01T04:25:31;96426.44;;;5.79;78.64
20612;BME280;10465;42.686;23.364;2023-01-01T04:27:57;96421.81;;;5.69;78.69
20612;BME280;10465;42.686;23.364;2023-01-01T04:30:22;96408.47;;;5.59;78.80
20612;BME280;10465;42.686;23.364;2023-01-01T04:32:48;96429.94;;;5.67;79.77
20612;BME280;10465;42.686;23.364;2023-01-01T04:35:14;96423.81;;;5.50;79.49
20612;BME280;10465;42.686;23.364;2023-01-01T04:37:41;96436.91;;;5.62;79.54
20612;BME280;10465;42.686;23.364;2023-01-01T04:40:08;96432.44;;;5.62;79.72
20612;BME280;10465;42.686;23.364;2023-01-01T04:42:33;96424.97;;;5.42;79.68
20612;BME280;10465;42.686;23.364;2023-01-01T04:44:59;96384.94;;;5.07;79.60
20612;BME280;10465;42.686;23.364;2023-01-01T04:47:25;96434.50;;;5.32;79.69
20612;BME280;10465;42.686;23.364;2023-01-01T04:49:53;96436.59;;;5.18;79.12
20612;BME280;10465;42.686;23.364;2023-01-01T04:52:19;96440.06;;;5.07;80.20
20612;BME280;10465;42.686;23.364;2023-01-01T04:54:45;96421.38;;;4.80;81.30
20612;BME280;10465;42.686;23.364;2023-01-01T04:57:11;96403.00;;;4.68;82.51
20612;BME280;10465;42.686;23.364;2023-01-01T04:59:36;96428.19;;;4.81;83.96
20612;BME280;10465;42.686;23.364;2023-01-01T05:02:02;96432.53;;;4.87;83.73
20612;BME280;10465;42.686;23.364;2023-01-01T05:04:28;96432.41;;;4.82;83.58
20612;BME280;10465;42.686;23.364;2023-01-01T05:06:53;96440.28;;;4.82;83.27
20612;BME280;10465;42.686;23.364;2023-01-01T05:09:20;96443.50;;;4.84;83.56
20612;BME280;10465;42.686;23.364;2023-01-01T05:11:46;96435.63;;;4.72;84.57
20612;BME280;10465;42.686;23.364;2023-01-01T05:14:11;96432.44;;;4.70;84.53
20612;BME280;10465;42.686;23.364;2023-01-01T05:16:38;96434.94;;;4.88;84.21
20612;BME280;10465;42.686;23.364;2023-01-01T05:19:04;96428.78;;;4.94;83.63
20612;BME280;10465;42.686;23.364;2023-01-01T05:21:33;96442.56;;;5.02;82.70
20612;BME280;10465;42.686;23.364;2023-01-01T05:24:02;96443.13;;;4.92;82.19
20612;BME280;10465;42.686;23.364;2023-01-01T05:26:30;96438.34;;;5.01;81.28
20612;BME280;10465;42.686;23.364;2023-01-01T05:28:57;96444.84;;;4.98;81.20
20612;BME280;10465;42.686;23.364;2023-01-01T05:31:25;96447.00;;;5.01;81.10
20612;BME280;10465;42.686;23.364;2023-01-01T05:33:51;96449.97;;;5.05;81.07
20612;BME280;10465;42.686;23.364;2023-01-01T05:36:23;96434.47;;;4.80;81.11
20612;BME280;10465;42.686;23.364;2023-01-01T05:38:50;96452.25;;;5.01;80.40
20612;BME280;10465;42.686;23.364;2023-01-01T05:41:17;96446.47;;;4.87;80.45
20612;BME280;10465;42.686;23.364;2023-01-01T05:43:43;96454.19;;;5.06;80.55
20612;BME280;10465;42.686;23.364;2023-01-01T05:46:14;96450.41;;;5.02;80.72
20612;BME280;10465;42.686;23.364;2023-01-01T05:48:40;96458.53;;;5.00;80.62
20612;BME280;10465;42.686;23.364;2023-01-01T05:51:07;96443.69;;;5.06;80.52
20612;BME280;10465;42.686;23.364;2023-01-01T05:53:33;96444.03;;;4.97;79.99
20612;BME280;10465;42.686;23.364;2023-01-01T05:55:59;96442.91;;;4.93;80.74
20612;BME280;10465;42.686;23.364;2023-01-01T05:58:26;96447.34;;;4.93;81.14
20612;BME280;10465;42.686;23.364;2023-01-01T06:00:52;96420.22;;;4.87;81.01
20612;BME280;10465;42.686;23.364;2023-01-01T06:03:18;96449.28;;;5.09;82.50
20612;BME280;10465;42.686;23.364;2023-01-01T06:05:44;96449.28;;;5.09;82.90
20612;BME280;10465;42.686;23.364;2023-01-01T06:08:10;96450.84;;;5.22;83.38
20612;BME280;10465;42.686;23.364;2023-01-01T06:10:36;96423.94;;;5.15;83.04
20612;BME280;10465;42.686;23.364;2023-01-01T06:13:01;96424.13;;;5.25;82.57
20612;BME280;10465;42.686;23.364;2023-01-01T06:15:27;96451.75;;;5.39;80.91
20612;BME280;10465;42.686;23.364;2023-01-01T06:17:53;96392.38;;;4.86;80.67
20612;BME280;10465;42.686;23.364;2023-01-01T06:20:19;96451.94;;;5.38;80.70
20612;BME280;10465;42.686;23.364;2023-01-01T06:22:45;96453.66;;;5.44;80.61
20612;BME280;10465;42.686;23.364;2023-01-01T06:25:11;96434.84;;;5.35;81.14
20612;BME280;10465;42.686;23.364;2023-01-01T06:27:37;96469.22;;;5.62;81.03
20612;BME280;10465;42.686;23.364;2023-01-01T06:30:04;96439.94;;;5.42;80.29
20612;BME280;10465;42.686;23.364;2023-01-01T06:32:30;96443.38;;;5.42;79.87
20612;BME280;10465;42.686;23.364;2023-01-01T06:34:55;96474.66;;;5.56;80.28
20612;BME280;10465;42.686;23.364;2023-01-01T06:37:21;96467.06;;;5.31;79.77
20612;BME280;10465;42.686;23.364;2023-01-01T06:39:46;96474.66;;;5.44;79.27
20612;BME280;10465;42.686;23.364;2023-01-01T06:42:12;96482.88;;;5.48;79.10
20612;BME280;10465;42.686;23.364;2023-01-01T06:44:37;96465.72;;;5.16;78.66
20612;BME280;10465;42.686;23.364;2023-01-01T06:47:03;96481.34;;;5.23;78.68
20612;BME280;10465;42.686;23.364;2023-01-01T06:49:28;96474.81;;;5.26;79.41
20612;BME280;10465;42.686;23.364;2023-01-01T06:51:54;96481.41;;;5.40;80.03
20612;BME280;10465;42.686;23.364;2023-01-01T06:54:20;96495.78;;;5.49;80.33
20612;BME280;10465;42.686;23.364;2023-01-01T06:56:45;96495.81;;;5.37;79.76
20612;BME280;10465;42.686;23.364;2023-01-01T06:59:11;96490.69;;;5.31;80.62
20612;BME280;10465;42.686;23.364;2023-01-01T07:01:37;96516.13;;;5.42;80.43
20612;BME280;10465;42.686;23.364;2023-01-01T07:04:09;96509.72;;;5.50;79.96
20612;BME280;10465;42.686;23.364;2023-01-01T07:06:35;96493.22;;;5.66;79.06
20612;BME280;10465;42.686;23.364;2023-01-01T07:09:02;96494.31;;;5.82;78.08
20612;BME280;10465;42.686;23.364;2023-01-01T07:11:28;96498.75;;;5.93;78.05
20612;BME280;10465;42.686;23.364;2023-01-01T07:13:54;96443.44;;;5.88;77.03
20612;BME280;10465;42.686;23.364;2023-01-01T07:16:20;96491.72;;;6.44;76.19
20612;BME280;10465;42.686;23.364;2023-01-01T07:18:45;96479.22;;;6.68;75.11
20612;BME280;10465;42.686;23.364;2023-01-01T07:21:49;96510.63;;;7.08;73.83
20612;BME280;10465;42.686;23.364;2023-01-01T07:24:15;96497.91;;;7.44;72.28
20612;BME280;10465;42.686;23.364;2023-01-01T07:26:41;96510.03;;;8.11;68.53
20612;BME280;10465;42.686;23.364;2023-01-01T07:29:07;96501.16;;;8.49;66.59
20612;BME280;10465;42.686;23.364;2023-01-01T07:31:34;96476.09;;;9.26;63.40
20612;BME280;10465;42.686;23.364;2023-01-01T07:33:59;96480.66;;;10.85;59.16
20612;BME280;10465;42.686;23.364;2023-01-01T07:36:25;96505.56;;;12.40;53.48
20612;BME280;10465;42.686;23.364;2023-01-01T07:38:50;96515.44;;;12.73;49.86
20612;BME280;10465;42.686;23.364;2023-01-01T07:41:16;96467.13;;;11.12;52.79
20612;BME280;10465;42.686;23.364;2023-01-01T07:43:41;96491.78;;;10.26;56.64
20612;BME280;10465;42.686;23.364;2023-01-01T07:46:11;96485.09;;;9.30;59.41
20612;BME280;10465;42.686;23.364;2023-01-01T07:48:36;96512.78;;;8.80;61.49
20612;BME280;10465;42.686;23.364;2023-01-01T07:51:02;96506.22;;;8.51;63.47
20612;BME280;10465;42.686;23.364;2023-01-01T07:53:27;96508.03;;;8.23;65.15
20612;BME280;10465;42.686;23.364;2023-01-01T07:55:53;96511.88;;;8.10;65.97
20612;BME280;10465;42.686;23.364;2023-01-01T07:58:18;96489.97;;;7.83;66.02
20612;BME280;10465;42.686;23.364;2023-01-01T08:00:45;96507.66;;;7.87;66.25
20612;BME280;10465;42.686;23.364;2023-01-01T08:03:11;96491.97;;;7.76;66.61
20612;BME280;10465;42.686;23.364;2023-01-01T08:05:37;96511.91;;;7.88;66.64
20612;BME280;10465;42.686;23.364;2023-01-01T08:08:02;96501.59;;;7.87;66.68
20612;BME280;10465;42.686;23.364;2023-01-01T08:10:29;96515.31;;;7.89;66.29
20612;BME280;10465;42.686;23.364;2023-01-01T08:12:59;96512.16;;;7.87;67.10
20612;BME280;10465;42.686;23.364;2023-01-01T08:15:25;96523.41;;;8.04;67.65
20612;BME280;10465;42.686;23.364;2023-01-01T08:18:03;96516.09;;;8.11;67.13
20612;BME280;10465;42.686;23.364;2023-01-01T08:20:30;96531.16;;;8.38;66.08
20612;BME280;10465;42.686;23.364;2023-01-01T08:22:56;96504.53;;;8.39;65.59
20612;BME280;10465;42.686;23.364;2023-01-01T08:25:21;96527.50;;;8.71;65.36
20612;BME280;10465;42.686;23.364;2023-01-01T08:27:47;96525.25;;;8.90;64.44
20612;BME280;10465;42.686;23.364;2023-01-01T08:30:13;96527.94;;;8.95;63.21
20612;BME280;10465;42.686;23.364;2023-01-01T08:32:39;96516.66;;;9.05;63.51
20612;BME280;10465;42.686;23.364;2023-01-01T08:35:05;96529.78;;;9.32;63.60
20612;BME280;10465;42.686;23.364;2023-01-01T08:37:31;96521.41;;;9.50;62.80
20612;BME280;10465;42.686;23.364;2023-01-01T08:39:56;96506.63;;;9.54;62.35
20612;BME280;10465;42.686;23.364;2023-01-01T08:42:22;96529.25;;;9.93;61.33
20612;BME280;10465;42.686;23.364;2023-01-01T08:44:47;96528.22;;;9.99;61.13
20612;BME280;10465;42.686;23.364;2023-01-01T08:47:26;96526.91;;;10.06;60.36
20612;BME280;10465;42.686;23.364;2023-01-01T08:49:52;96534.84;;;10.06;60.44
20612;BME280;10465;42.686;23.364;2023-01-01T08:52:18;96524.28;;;10.11;59.89
20612;BME280;10465;42.686;23.364;2023-01-01T08:54:44;96508.13;;;10.08;59.05
20612;BME280;10465;42.686;23.364;2023-01-01T08:57:09;96530.47;;;10.37;59.42
20612;BME280;10465;42.686;23.364;2023-01-01T08:59:35;96524.91;;;10.39;59.71
20612;BME280;10465;42.686;23.364;2023-01-01T09:02:01;96501.59;;;10.41;58.41
20612;BME280;10465;42.686;23.364;2023-01-01T09:04:26;96499.75;;;10.42;59.16
20612;BME280;10465;42.686;23.364;2023-01-01T09:06:52;96516.16;;;10.69;58.02
20612;BME280;10465;42.686;23.364;2023-01-01T09:09:18;96487.31;;;10.57;57.78
20612;BME280;10465;42.686;23.364;2023-01-01T09:11:52;96483.06;;;10.77;57.63
20612;BME280;10465;42.686;23.364;2023-01-01T09:14:18;96488.06;;;11.14;56.16
20612;BME280;10465;42.686;23.364;2023-01-01T09:16:43;96503.06;;;11.54;56.00
20612;BME280;10465;42.686;23.364;2023-01-01T09:19:09;96489.19;;;11.78;54.82
20612;BME280;10465;42.686;23.364;2023-01-01T09:21:34;96495.06;;;12.24;53.70
20612;BME280;10465;42.686;23.364;2023-01-01T09:24:00;96493.31;;;12.49;52.66
20612;BME280;10465;42.686;23.364;2023-01-01T09:26:25;96473.69;;;12.45;52.17
20612;BME280;10465;42.686;23.364;2023-01-01T09:28:51;96489.44;;;12.36;52.21
20612;BME280;10465;42.686;23.364;2023-01-01T09:31:16;96483.78;;;12.43;52.74
20612;BME280;10465;42.686;23.364;2023-01-01T09:33:42;96488.50;;;12.51;52.76
20612;BME280;10465;42.686;23.364;2023-01-01T09:36:25;96489.78;;;12.58;52.76
20612;BME280;10465;42.686;23.364;2023-01-01T09:38:52;96450.88;;;12.73;52.57
20612;BME280;10465;42.686;23.364;2023-01-01T09:46:36;96472.75;;;12.94;50.95
20612;BME280;10465;42.686;23.364;2023-01-01T09:49:08;96478.75;;;13.04;51.32
20612;BME280;10465;42.686;23.364;2023-01-01T09:51:38;96467.69;;;13.26;51.17
20612;BME280;10465;42.686;23.364;2023-01-01T09:56:53;96454.06;;;13.52;49.85
20612;BME280;10465;42.686;23.364;2023-01-01T09:59:20;96442.88;;;13.55;49.76
20612;BME280;10465;42.686;23.364;2023-01-01T10:05:20;96464.44;;;13.96;49.14
20612;BME280;10465;42.686;23.364;2023-01-01T10:11:04;96442.06;;;14.16;48.65
20612;BME280;10465;42.686;23.364;2023-01-01T10:13:43;96439.50;;;14.44;48.41
20612;BME280;10465;42.686;23.364;2023-01-01T10:16:11;96445.88;;;14.80;47.41
20612;BME280;10465;42.686;23.364;2023-01-01T10:18:39;96446.69;;;14.95;46.98
20612;BME280;10465;42.686;23.364;2023-01-01T10:21:18;96431.66;;;14.85;46.52
20612;BME280;10465;42.686;23.364;2023-01-01T10:23:47;96449.53;;;14.98;47.26
20612;BME280;10465;42.686;23.364;2023-01-01T10:26:20;96422.88;;;14.84;47.16
20612;BME280;10465;42.686;23.364;2023-01-01T10:29:09;96438.50;;;15.05;47.17
20612;BME280;10465;42.686;23.364;2023-01-01T10:31:40;96425.66;;;14.93;47.27
20612;BME280;10465;42.686;23.364;2023-01-01T10:34:15;96440.13;;;15.20;47.27
20612;BME280;10465;42.686;23.364;2023-01-01T10:36:42;96434.56;;;15.30;46.66
20612;BME280;10465;42.686;23.364;2023-01-01T10:39:14;96410.97;;;15.37;47.23
20612;BME280;10465;42.686;23.364;2023-01-01T10:41:40;96416.56;;;15.63;46.42
20612;BME280;10465;42.686;23.364;2023-01-01T10:44:06;96388.03;;;15.36;46.10
20612;BME280;10465;42.686;23.364;2023-01-01T10:46:34;96416.59;;;15.49;46.73
20612;BME280;10465;42.686;23.364;2023-01-01T10:49:06;96408.28;;;15.65;46.39
20612;BME280;10465;42.686;23.364;2023-01-01T10:51:31;96415.16;;;15.79;46.30
20612;BME280;10465;42.686;23.364;2023-01-01T10:53:57;96404.81;;;15.78;46.69
20612;BME280;10465;42.686;23.364;2023-01-01T10:56:23;96399.31;;;15.97;46.18
20612;BME280;10465;42.686;23.364;2023-01-01T10:58:56;96377.16;;;15.96;45.50
20612;BME280;10465;42.686;23.364;2023-01-01T11:01:31;96391.97;;;16.02;45.64
20612;BME280;10465;42.686;23.364;2023-01-01T11:04:02;96389.56;;;16.15;45.51
20612;BME280;10465;42.686;23.364;2023-01-01T11:06:43;96382.81;;;16.17;45.56
20612;BME280;10465;42.686;23.364;2023-01-01T11:09:21;96369.34;;;16.22;45.67
20612;BME280;10465;42.686;23.364;2023-01-01T11:11:54;96368.94;;;16.29;45.69
20612;BME280;10465;42.686;23.364;2023-01-01T11:14:25;96375.34;;;16.50;45.02
20612;BME280;10465;42.686;23.364;2023-01-01T11:16:52;96360.34;;;16.41;44.79
20612;BME280;10465;42.686;23.364;2023-01-01T11:19:23;96376.63;;;16.53;45.00
20612;BME280;10465;42.686;23.364;2023-01-01T11:21:49;96342.06;;;16.34;44.70
20612;BME280;10465;42.686;23.364;2023-01-01T11:24:23;96367.56;;;16.63;44.37
20612;BME280;10465;42.686;23.364;2023-01-01T11:26:50;96365.34;;;16.87;44.39
20612;BME280;10465;42.686;23.364;2023-01-01T11:29:27;96348.31;;;16.83;43.73
20612;BME280;10465;42.686;23.364;2023-01-01T11:31:53;96355.91;;;16.90;44.00
20612;BME280;10465;42.686;23.364;2023-01-01T11:37:09;96342.47;;;17.21;43.78
20612;BME280;10465;42.686;23.364;2023-01-01T11:39:36;96348.19;;;17.54;43.60
20612;BME280;10465;42.686;23.364;2023-01-01T11:42:05;96340.81;;;17.60;42.89
20612;BME280;10465;42.686;23.364;2023-01-01T11:44:41;96326.50;;;17.64;42.61
20612;BME280;10465;42.686;23.364;2023-01-01T11:52:43;96329.78;;;17.61;42.76
20612;BME280;10465;42.686;23.364;2023-01-01T12:00:45;96316.13;;;17.89;42.16
20612;BME280;10465;42.686;23.364;2023-01-01T12:13:50;96316.84;;;18.97;40.27
20612;BME280;10465;42.686;23.364;2023-01-01T12:16:22;96317.91;;;19.34;40.14
20612;BME280;10465;42.686;23.364;2023-01-01T12:19:03;96314.16;;;19.47;38.66
20612;BME280;10465;42.686;23.364;2023-01-01T12:21:32;96291.94;;;19.68;38.60
20612;BME280;10465;42.686;23.364;2023-01-01T12:24:00;96308.28;;;19.96;37.63
20612;BME280;10465;42.686;23.364;2023-01-01T12:32:06;96252.66;;;19.34;38.41
20612;BME280;10465;42.686;23.364;2023-01-01T12:45:25;96290.66;;;17.08;44.10
20612;BME280;10465;42.686;23.364;2023-01-01T12:56:45;96281.00;;;16.19;47.22
20612;BME280;10465;42.686;23.364;2023-01-01T12:59:25;96287.19;;;16.05;48.22
20612;BME280;10465;42.686;23.364;2023-01-01T13:01:57;96276.09;;;15.90;48.16
20612;BME280;10465;42.686;23.364;2023-01-01T13:04:25;96293.69;;;15.91;48.58
20612;BME280;10465;42.686;23.364;2023-01-01T13:07:02;96294.22;;;15.79;49.30
20612;BME280;10465;42.686;23.364;2023-01-01T13:09:37;96292.41;;;15.66;49.32
20612;BME280;10465;42.686;23.364;2023-01-01T13:12:18;96296.97;;;15.51;49.92
20612;BME280;10465;42.686;23.364;2023-01-01T13:14:48;96296.03;;;15.33;50.32
20612;BME280;10465;42.686;23.364;2023-01-01T13:19:46;96276.22;;;14.98;51.02
20612;BME280;10465;42.686;23.364;2023-01-01T13:25:18;96292.31;;;14.93;51.98
20612;BME280;10465;42.686;23.364;2023-01-01T13:33:18;96287.69;;;14.57;53.71
20612;BME280;10465;42.686;23.364;2023-01-01T13:38:54;96290.63;;;14.42;53.65
20612;BME280;10465;42.686;23.364;2023-01-01T13:46:38;96242.75;;;13.91;54.82
20612;BME280;10465;42.686;23.364;2023-01-01T13:49:44;96285.97;;;14.01;55.39
20612;BME280;10465;42.686;23.364;2023-01-01T14:00:16;96298.66;;;13.91;55.81
20612;BME280;10465;42.686;23.364;2023-01-01T14:05:24;96292.25;;;13.92;55.82
20612;BME280;10465;42.686;23.364;2023-01-01T14:07:54;96251.53;;;13.58;55.71
20612;BME280;10465;42.686;23.364;2023-01-01T14:12:54;96288.03;;;13.91;55.81
20612;BME280;10465;42.686;23.364;2023-01-01T14:15:30;96293.25;;;13.96;55.92
20612;BME280;10465;42.686;23.364;2023-01-01T14:17:58;96274.50;;;13.87;56.16
20612;BME280;10465;42.686;23.364;2023-01-01T14:20:41;96261.06;;;13.78;56.41
20612;BME280;10465;42.686;23.364;2023-01-01T14:23:15;96266.66;;;13.77;56.48
20612;BME280;10465;42.686;23.364;2023-01-01T14:25:44;96290.03;;;13.80;56.70
20612;BME280;10465;42.686;23.364;2023-01-01T14:28:20;96132.59;;;12.70;57.14
20612;BME280;10465;42.686;23.364;2023-01-01T14:30:49;96275.13;;;13.46;57.43
20612;BME280;10465;42.686;23.364;2023-01-01T14:33:33;96288.13;;;13.48;57.74
20612;BME280;10465;42.686;23.364;2023-01-01T14:36:00;96289.06;;;13.38;58.56
20612;BME280;10465;42.686;23.364;2023-01-01T14:38:34;96294.38;;;13.38;58.73
20612;BME280;10465;42.686;23.364;2023-01-01T14:43:31;96282.59;;;13.25;59.81
20612;BME280;10465;42.686;23.364;2023-01-01T14:45:57;96291.13;;;13.22;59.78
20612;BME280;10465;42.686;23.364;2023-01-01T14:48:24;96289.31;;;13.18;59.78
20612;BME280;10465;42.686;23.364;2023-01-01T14:50:50;96302.78;;;13.26;60.10
20612;BME280;10465;42.686;23.364;2023-01-01T14:53:19;96298.56;;;13.20;59.99
20612;BME280;10465;42.686;23.364;2023-01-01T14:55:47;96297.94;;;13.09;60.12
20612;BME280;10465;42.686;23.364;2023-01-01T14:58:19;96273.97;;;12.91;60.58
20612;BME280;10465;42.686;23.364;2023-01-01T15:00:50;96305.16;;;13.04;60.30
20612;BME280;10465;42.686;23.364;2023-01-01T15:03:20;96307.44;;;12.92;60.27
20612;BME280;10465;42.686;23.364;2023-01-01T15:06:01;96311.56;;;12.79;60.65
20612;BME280;10465;42.686;23.364;2023-01-01T15:08:27;96302.19;;;12.62;61.14
20612;BME280;10465;42.686;23.364;2023-01-01T15:10:54;96303.81;;;12.58;61.58
20612;BME280;10465;42.686;23.364;2023-01-01T15:13:23;96304.38;;;12.55;61.84